createdAt,value
2023-06-03T00:00:28.324Z,25.00
2023-06-03T00:01:28.321Z,25.00
2023-06-03T00:02:28.374Z,0.00
2023-06-03T00:03:28.334Z,0.00
2023-06-03T00:04:28.335Z,0.00
2023-06-03T00:05:28.292Z,0.00
2023-06-03T00:06:28.283Z,0.00
2023-06-03T00:07:28.274Z,0.00
2023-06-03T00:08:28.276Z,8.10
2023-06-03T00:09:28.274Z,23.24
2023-06-03T00:10:28.258Z,26.19
2023-06-03T00:11:28.250Z,25.00
2023-06-03T00:12:28.257Z,25.40
2023-06-03T00:13:28.286Z,25.00
2023-06-03T00:14:28.238Z,25.00
2023-06-03T00:15:28.237Z,26.85
2023-06-03T00:16:28.230Z,26.24
2023-06-03T00:17:28.247Z,25.13
2023-06-03T00:18:28.256Z,25.00
2023-06-03T00:19:28.221Z,26.50
2023-06-03T00:20:28.217Z,25.00
2023-06-03T00:21:28.212Z,23.78
2023-06-03T00:22:28.217Z,26.00
2023-06-03T00:23:28.221Z,26.80
2023-06-03T00:24:28.205Z,25.00
2023-06-03T00:25:28.203Z,25.63
2023-06-03T00:26:28.209Z,27.48
2023-06-03T00:27:28.197Z,26.68
2023-06-03T00:28:28.212Z,25.59
2023-06-03T00:29:28.196Z,25.49
2023-06-03T00:30:28.193Z,25.00
2023-06-03T00:31:28.239Z,27.03
2023-06-03T00:32:28.232Z,26.27
2023-06-03T00:33:28.240Z,27.73
2023-06-03T00:34:28.187Z,28.36
2023-06-03T00:35:28.182Z,26.71
2023-06-03T00:36:28.181Z,26.29
2023-06-03T00:37:28.198Z,25.68
2023-06-03T00:38:28.169Z,28.56
2023-06-03T00:39:28.186Z,28.52
2023-06-03T00:40:30.433Z,26.97
2023-06-03T00:41:28.182Z,27.17
2023-06-03T00:42:28.182Z,27.58
2023-06-03T00:43:28.157Z,26.07
2023-06-03T00:44:28.131Z,23.01
2023-06-03T00:45:28.162Z,22.97
2023-06-03T00:46:28.180Z,26.63
2023-06-03T00:47:28.176Z,27.64
2023-06-03T00:48:28.111Z,27.53
2023-06-03T00:49:28.111Z,27.65
2023-06-03T00:50:28.105Z,27.56
2023-06-03T00:51:28.091Z,25.52
2023-06-03T00:52:28.082Z,29.78
2023-06-03T00:53:28.055Z,27.32
2023-06-03T00:54:28.051Z,27.85
2023-06-03T00:55:28.049Z,25.00
2023-06-03T00:56:28.033Z,28.33
2023-06-03T00:57:28.034Z,26.57
2023-06-03T00:58:28.017Z,30.84
2023-06-03T00:59:28.012Z,26.83
2023-06-03T01:00:28.005Z,28.69
2023-06-03T01:01:28.020Z,25.91
2023-06-03T01:02:28.105Z,25.25
2023-06-03T01:03:28.838Z,30.48
2023-06-03T01:04:28.003Z,29.50
2023-06-03T01:05:27.963Z,25.00
2023-06-03T01:06:27.963Z,25.92
2023-06-03T01:07:27.953Z,25.00
2023-06-03T01:08:27.959Z,25.00
2023-06-03T01:09:27.939Z,25.96
2023-06-03T01:10:27.929Z,27.47
2023-06-03T01:11:27.925Z,25.00
2023-06-03T01:12:27.920Z,26.76
2023-06-03T01:13:27.899Z,28.06
2023-06-03T01:14:27.895Z,30.17
2023-06-03T01:15:27.931Z,30.01
2023-06-03T01:16:27.934Z,26.91
2023-06-03T01:17:27.922Z,27.99
2023-06-03T01:18:27.876Z,28.31
2023-06-03T01:19:27.879Z,29.76
2023-06-03T01:20:28.013Z,27.10
2023-06-03T01:21:27.874Z,28.36
2023-06-03T01:22:27.845Z,30.03
2023-06-03T01:23:28.689Z,27.85
2023-06-03T01:24:27.859Z,25.00
2023-06-03T01:25:27.838Z,28.57
2023-06-03T01:26:27.827Z,28.18
2023-06-03T01:27:27.821Z,30.91
2023-06-03T01:28:27.818Z,30.16
2023-06-03T01:29:27.814Z,30.03
2023-06-03T01:30:27.816Z,29.23
2023-06-03T01:31:27.819Z,25.81
2023-06-03T01:32:27.810Z,27.78
2023-06-03T01:33:27.847Z,25.00
2023-06-03T01:34:27.818Z,28.18
2023-06-03T01:35:27.794Z,26.12
2023-06-03T01:36:27.796Z,29.69
2023-06-03T01:37:27.774Z,26.15
2023-06-03T01:38:27.774Z,26.21
2023-06-03T01:39:27.753Z,28.43
2023-06-03T01:40:27.804Z,27.28
2023-06-03T01:41:27.743Z,28.99
2023-06-03T01:42:27.733Z,27.79
2023-06-03T01:43:27.745Z,31.37
2023-06-03T01:44:27.720Z,30.86
2023-06-03T01:45:27.757Z,29.34
2023-06-03T01:46:27.824Z,28.90
2023-06-03T01:47:27.757Z,29.22
2023-06-03T01:48:27.730Z,27.02
2023-06-03T01:49:27.698Z,26.22
2023-06-03T01:50:27.824Z,25.99
2023-06-03T01:51:27.739Z,25.00
2023-06-03T01:52:27.766Z,27.04
2023-06-03T01:53:27.727Z,28.24
2023-06-03T01:54:27.733Z,25.72
2023-06-03T01:55:27.723Z,30.46
2023-06-03T01:56:27.620Z,26.22
2023-06-03T01:57:28.375Z,28.97
2023-06-03T01:58:27.596Z,28.34
2023-06-03T01:59:27.613Z,29.31
2023-06-03T02:00:27.633Z,28.76
2023-06-03T02:01:27.670Z,27.69
2023-06-03T02:02:27.737Z,27.47
2023-06-03T02:03:27.619Z,25.94
2023-06-03T02:04:27.615Z,28.41
2023-06-03T02:05:27.624Z,27.42
2023-06-03T02:06:27.634Z,28.37
2023-06-03T02:07:27.637Z,28.04
2023-06-03T02:08:28.189Z,27.84
2023-06-03T02:09:27.656Z,30.64
2023-06-03T02:10:27.652Z,29.28
2023-06-03T02:11:27.660Z,26.87
2023-06-03T02:12:27.682Z,27.46
2023-06-03T02:13:27.671Z,29.59
2023-06-03T02:14:27.774Z,27.05
2023-06-03T02:15:27.693Z,26.16
2023-06-03T02:16:27.737Z,27.86
2023-06-03T02:17:27.807Z,26.69
2023-06-03T02:18:27.870Z,28.92
2023-06-03T02:19:27.770Z,29.14
2023-06-03T02:20:27.789Z,27.90
2023-06-03T02:21:27.762Z,31.95
2023-06-03T02:22:27.782Z,30.58
2023-06-03T02:23:27.856Z,27.79
2023-06-03T02:24:27.794Z,29.31
2023-06-03T02:25:27.805Z,29.57
2023-06-03T02:26:27.811Z,25.00
2023-06-03T02:27:27.822Z,26.06
2023-06-03T02:28:27.858Z,25.99
2023-06-03T02:29:27.843Z,27.61
2023-06-03T02:30:27.862Z,26.51
2023-06-03T02:31:27.879Z,25.00
2023-06-03T02:32:27.903Z,28.55
2023-06-03T02:33:27.879Z,29.94
2023-06-03T02:34:27.897Z,27.45
2023-06-03T02:35:27.937Z,30.63
2023-06-03T02:36:27.901Z,26.75
2023-06-03T02:37:27.998Z,30.37
2023-06-03T02:38:28.030Z,25.59
2023-06-03T02:39:27.919Z,30.43
2023-06-03T02:40:27.925Z,25.84
2023-06-03T02:41:27.938Z,29.72
2023-06-03T02:42:28.076Z,28.18
2023-06-03T02:43:27.939Z,27.81
2023-06-03T02:44:28.051Z,27.90
2023-06-03T02:45:28.068Z,27.49
2023-06-03T02:46:28.057Z,27.07
2023-06-03T02:47:27.999Z,28.63
2023-06-03T02:48:27.978Z,29.44
2023-06-03T02:49:28.065Z,30.22
2023-06-03T02:50:28.106Z,28.58
2023-06-03T02:51:28.011Z,29.41
2023-06-03T02:52:28.005Z,29.09
2023-06-03T02:53:28.083Z,27.59
2023-06-03T02:54:28.139Z,28.29
2023-06-03T02:55:28.088Z,29.55
2023-06-03T02:56:28.115Z,29.24
2023-06-03T02:57:28.149Z,27.92
2023-06-03T02:58:28.067Z,26.93
2023-06-03T02:59:28.109Z,27.16
2023-06-03T03:00:28.200Z,29.27
2023-06-03T03:01:28.213Z,26.63
2023-06-03T03:02:28.291Z,28.13
2023-06-03T03:03:28.285Z,27.45
2023-06-03T03:04:28.248Z,29.68
2023-06-03T03:05:28.177Z,27.05
2023-06-03T03:06:28.282Z,28.67
2023-06-03T03:07:28.345Z,30.33
2023-06-03T03:08:28.231Z,26.26
2023-06-03T03:09:28.298Z,28.19
2023-06-03T03:10:28.291Z,26.30
2023-06-03T03:11:28.269Z,27.60
2023-06-03T03:12:28.247Z,25.86
2023-06-03T03:13:28.263Z,27.17
2023-06-03T03:14:28.249Z,27.23
2023-06-03T03:15:28.257Z,28.65
2023-06-03T03:16:28.304Z,28.49
2023-06-03T03:17:28.307Z,26.33
2023-06-03T03:18:28.268Z,27.16
2023-06-03T03:19:28.289Z,25.00
2023-06-03T03:20:28.296Z,28.79
2023-06-03T03:21:28.312Z,28.94
2023-06-03T03:22:28.317Z,25.45
2023-06-03T03:23:28.371Z,28.52
2023-06-03T03:24:28.338Z,26.59
2023-06-03T03:25:28.382Z,28.53
2023-06-03T03:26:28.431Z,30.35
2023-06-03T03:27:28.422Z,30.01
2023-06-03T03:28:28.391Z,30.79
2023-06-03T03:29:28.399Z,28.79
2023-06-03T03:30:28.410Z,27.17
2023-06-03T03:31:28.448Z,29.09
2023-06-03T03:32:28.649Z,30.90
2023-06-03T03:33:28.444Z,27.73
2023-06-03T03:34:28.489Z,25.48
2023-06-03T03:35:28.535Z,29.50
2023-06-03T03:36:28.498Z,29.74
2023-06-03T03:37:28.521Z,26.86
2023-06-03T03:38:28.529Z,27.76
2023-06-03T03:39:28.547Z,28.17
2023-06-03T03:40:28.600Z,27.86
2023-06-03T03:41:28.580Z,25.99
2023-06-03T03:42:28.598Z,32.30
2023-06-03T03:43:28.624Z,29.78
2023-06-03T03:44:28.637Z,28.28
2023-06-03T03:45:28.676Z,26.84
2023-06-03T03:46:28.868Z,25.87
2023-06-03T03:47:28.749Z,30.75
2023-06-03T03:48:28.701Z,29.73
2023-06-03T03:49:28.709Z,28.73
2023-06-03T03:50:28.737Z,27.24
2023-06-03T03:51:28.744Z,29.12
2023-06-03T03:52:28.821Z,32.28
2023-06-03T03:53:28.786Z,28.62
2023-06-03T03:54:28.787Z,29.56
2023-06-03T03:55:30.795Z,30.89
2023-06-03T03:56:28.822Z,31.05
2023-06-03T03:57:28.788Z,31.36
2023-06-03T03:58:28.807Z,31.59
2023-06-03T03:59:28.861Z,28.62
2023-06-03T04:00:28.782Z,31.26
2023-06-03T04:01:28.818Z,29.33
2023-06-03T04:02:28.921Z,28.08
2023-06-03T04:03:28.846Z,27.32
2023-06-03T04:04:28.787Z,31.30
2023-06-03T04:05:28.748Z,27.21
2023-06-03T04:06:28.748Z,31.63
2023-06-03T04:07:28.746Z,31.11
2023-06-03T04:08:28.736Z,30.19
2023-06-03T04:09:28.739Z,31.97
2023-06-03T04:10:28.733Z,26.81
2023-06-03T04:11:28.720Z,26.14
2023-06-03T04:12:28.722Z,26.34
2023-06-03T04:13:28.710Z,27.16
2023-06-03T04:14:28.701Z,27.47
2023-06-03T04:15:28.729Z,27.99
2023-06-03T04:16:28.788Z,29.88
2023-06-03T04:17:28.711Z,27.68
2023-06-03T04:18:28.676Z,29.76
2023-06-03T04:19:28.662Z,29.11
2023-06-03T04:20:28.655Z,27.76
2023-06-03T04:21:28.653Z,28.36
2023-06-03T04:22:28.656Z,29.95
2023-06-03T04:23:29.245Z,30.04
2023-06-03T04:24:29.238Z,30.58
2023-06-03T04:25:28.687Z,29.68
2023-06-03T04:26:28.636Z,30.04
2023-06-03T04:27:28.673Z,30.09
2023-06-03T04:28:28.632Z,29.54
2023-06-03T04:29:28.633Z,27.88
2023-06-03T04:30:28.620Z,29.88
2023-06-03T04:31:28.652Z,29.95
2023-06-03T04:32:28.655Z,29.18
2023-06-03T04:33:28.601Z,28.73
2023-06-03T04:34:28.597Z,30.47
2023-06-03T04:35:28.587Z,31.30
2023-06-03T04:36:28.645Z,29.11
2023-06-03T04:37:28.609Z,27.33
2023-06-03T04:38:28.627Z,25.99
2023-06-03T04:39:28.818Z,27.13
2023-06-03T04:40:28.676Z,27.63
2023-06-03T04:41:28.733Z,25.00
2023-06-03T04:42:28.713Z,28.99
2023-06-03T04:43:28.726Z,30.78
2023-06-03T04:44:28.747Z,29.19
2023-06-03T04:45:28.785Z,30.98
2023-06-03T04:46:28.835Z,30.75
2023-06-03T04:47:28.813Z,26.60
2023-06-03T04:48:28.781Z,27.59
2023-06-03T04:49:28.821Z,27.00
2023-06-03T04:50:30.388Z,30.10
2023-06-03T04:51:29.025Z,25.58
2023-06-03T04:52:29.038Z,28.42
2023-06-03T04:53:29.059Z,28.46
2023-06-03T04:54:29.073Z,26.29
2023-06-03T04:55:29.090Z,29.89
2023-06-03T04:56:29.114Z,28.10
2023-06-03T04:57:29.148Z,27.92
2023-06-03T04:58:29.143Z,26.38
2023-06-03T04:59:29.164Z,28.81
2023-06-03T05:00:29.173Z,27.21
2023-06-03T05:01:29.272Z,26.63
2023-06-03T05:02:29.254Z,27.98
2023-06-03T05:03:29.297Z,26.20
2023-06-03T05:04:29.240Z,28.27
2023-06-03T05:05:29.254Z,28.51
2023-06-03T05:06:29.274Z,31.61
2023-06-03T05:07:29.295Z,27.54
2023-06-03T05:08:29.410Z,27.81
2023-06-03T05:09:29.328Z,28.68
2023-06-03T05:10:29.363Z,29.85
2023-06-03T05:11:29.363Z,29.25
2023-06-03T05:12:29.443Z,26.53
2023-06-03T05:13:29.396Z,27.51
2023-06-03T05:14:29.413Z,28.49
2023-06-03T05:15:29.456Z,26.67
2023-06-03T05:16:29.569Z,30.72
2023-06-03T05:17:29.562Z,30.04
2023-06-03T05:18:29.533Z,31.21
2023-06-03T05:19:29.532Z,28.22
2023-06-03T05:20:29.536Z,29.55
2023-06-03T05:21:29.526Z,27.92
2023-06-03T05:22:29.583Z,26.99
2023-06-03T05:23:29.599Z,27.81
2023-06-03T05:24:29.584Z,29.78
2023-06-03T05:25:29.601Z,26.73
2023-06-03T05:26:29.624Z,30.36
2023-06-03T05:27:29.705Z,27.21
2023-06-03T05:28:29.652Z,25.76
2023-06-03T05:29:29.668Z,29.52
2023-06-03T05:30:29.686Z,30.05
2023-06-03T05:31:29.746Z,25.67
2023-06-03T05:32:29.721Z,30.41
2023-06-03T05:33:29.736Z,28.62
2023-06-03T05:34:29.761Z,29.16
2023-06-03T05:35:29.773Z,27.14
2023-06-03T05:36:29.794Z,26.60
2023-06-03T05:37:29.824Z,30.24
2023-06-03T05:38:29.839Z,27.34
2023-06-03T05:39:29.852Z,29.04
2023-06-03T05:40:29.859Z,30.45
2023-06-03T05:41:29.880Z,27.32
2023-06-03T05:42:29.895Z,26.80
2023-06-03T05:43:29.912Z,29.59
2023-06-03T05:44:29.922Z,26.30
2023-06-03T05:45:29.950Z,28.86
2023-06-03T05:46:30.107Z,26.84
2023-06-03T05:47:30.066Z,30.93
2023-06-03T05:48:29.993Z,27.91
2023-06-03T05:49:30.019Z,27.62
2023-06-03T05:50:30.028Z,28.57
2023-06-03T05:51:30.046Z,27.21
2023-06-03T05:52:30.061Z,28.98
2023-06-03T05:53:30.088Z,31.97
2023-06-03T05:54:30.123Z,28.13
2023-06-03T05:55:30.108Z,26.58
2023-06-03T05:56:30.143Z,26.63
2023-06-03T05:57:30.167Z,30.55
2023-06-03T05:58:30.158Z,33.96
2023-06-03T05:59:30.176Z,37.32
2023-06-03T06:00:30.186Z,46.11
2023-06-03T06:01:30.197Z,49.98
2023-06-03T06:02:30.254Z,54.41
2023-06-03T06:03:30.332Z,55.46
2023-06-03T06:04:30.192Z,61.99
2023-06-03T06:05:30.181Z,66.04
2023-06-03T06:06:30.194Z,70.40
2023-06-03T06:07:30.246Z,75.65
2023-06-03T06:08:30.199Z,77.96
2023-06-03T06:09:30.257Z,84.63
2023-06-03T06:10:30.220Z,86.85
2023-06-03T06:11:30.450Z,89.53
2023-06-03T06:12:30.236Z,85.95
2023-06-03T06:13:30.251Z,87.92
2023-06-03T06:14:30.261Z,88.72
2023-06-03T06:15:30.290Z,91.22
2023-06-03T06:16:30.852Z,90.41
2023-06-03T06:17:30.373Z,91.97
2023-06-03T06:18:30.403Z,94.34
2023-06-03T06:19:30.437Z,96.99
2023-06-03T06:20:30.495Z,96.61
2023-06-03T06:21:30.580Z,99.36
2023-06-03T06:22:30.610Z,102.76
2023-06-03T06:23:30.734Z,105.34
2023-06-03T06:24:30.706Z,103.11
2023-06-03T06:25:30.761Z,100.78
2023-06-03T06:26:30.805Z,100.56
2023-06-03T06:27:30.869Z,98.56
2023-06-03T06:28:30.892Z,104.59
2023-06-03T06:29:31.298Z,104.80
2023-06-03T06:30:30.966Z,109.77
2023-06-03T06:31:31.034Z,136.67
2023-06-03T06:32:31.102Z,144.50
2023-06-03T06:33:31.083Z,141.16
2023-06-03T06:34:31.118Z,139.21
2023-06-03T06:35:31.151Z,135.18
2023-06-03T06:36:31.186Z,129.15
2023-06-03T06:37:31.242Z,126.96
2023-06-03T06:38:31.237Z,130.27
2023-06-03T06:39:31.263Z,146.65
2023-06-03T06:40:31.305Z,147.42
2023-06-03T06:41:31.332Z,143.95
2023-06-03T06:42:31.354Z,134.66
2023-06-03T06:43:31.848Z,129.30
2023-06-03T06:44:31.417Z,90.11
2023-06-03T06:45:31.626Z,50.26
2023-06-03T06:46:31.528Z,27.39
2023-06-03T06:47:31.552Z,25.00
2023-06-03T06:48:31.805Z,24.90
2023-06-03T06:49:31.624Z,17.65
2023-06-03T06:50:31.619Z,17.02
2023-06-03T06:51:31.654Z,18.33
2023-06-03T06:52:31.636Z,27.61
2023-06-03T06:53:31.672Z,35.83
2023-06-03T06:54:31.635Z,45.04
2023-06-03T06:55:31.640Z,52.65
2023-06-03T06:56:31.643Z,55.44
2023-06-03T06:57:31.644Z,70.49
2023-06-03T06:58:31.694Z,80.96
2023-06-03T06:59:31.620Z,90.63
2023-06-03T07:00:31.701Z,98.41
2023-06-03T07:01:31.730Z,95.55
2023-06-03T07:02:31.751Z,88.47
2023-06-03T07:03:31.812Z,76.18
2023-06-03T07:04:31.770Z,62.98
2023-06-03T07:05:31.813Z,53.30
2023-06-03T07:06:31.792Z,36.29
2023-06-03T07:07:31.813Z,26.07
2023-06-03T07:08:31.787Z,25.00
2023-06-03T07:09:31.769Z,30.62
2023-06-03T07:10:31.766Z,41.84
2023-06-03T07:11:31.759Z,41.44
2023-06-03T07:12:31.784Z,48.01
2023-06-03T07:13:31.758Z,58.27
2023-06-03T07:14:31.757Z,53.27
2023-06-03T07:15:31.773Z,18.28
2023-06-03T07:16:31.812Z,16.72
2023-06-03T07:17:31.822Z,23.36
2023-06-03T07:18:31.791Z,16.91
2023-06-03T07:19:31.788Z,19.19
2023-06-03T07:20:31.828Z,27.11
2023-06-03T07:21:31.847Z,30.06
2023-06-03T07:22:31.907Z,23.89
2023-06-03T07:23:31.955Z,25.37
2023-06-03T07:24:32.727Z,28.48
2023-06-03T07:25:31.978Z,32.40
2023-06-03T07:26:31.984Z,43.05
2023-06-03T07:27:32.013Z,43.41
2023-06-03T07:28:32.026Z,50.88
2023-06-03T07:29:31.990Z,45.54
2023-06-03T07:30:31.993Z,36.22
2023-06-03T07:31:32.063Z,37.99
2023-06-03T07:32:32.078Z,58.45
2023-06-03T07:33:32.011Z,72.77
2023-06-03T07:34:32.019Z,100.01
2023-06-03T07:35:32.013Z,125.46
2023-06-03T07:36:32.022Z,117.66
2023-06-03T07:37:32.071Z,109.16
2023-06-03T07:38:32.018Z,106.58
2023-06-03T07:39:32.018Z,95.66
2023-06-03T07:40:32.027Z,85.02
2023-06-03T07:41:32.032Z,83.56
2023-06-03T07:42:32.078Z,72.05
2023-06-03T07:43:32.326Z,77.41
2023-06-03T07:44:32.041Z,63.59
2023-06-03T07:45:32.062Z,47.78
2023-06-03T07:46:32.116Z,52.73
2023-06-03T07:47:32.109Z,63.72
2023-06-03T07:48:32.049Z,93.51
2023-06-03T07:49:32.042Z,90.62
2023-06-03T07:50:32.066Z,92.30
2023-06-03T07:51:32.049Z,78.69
2023-06-03T07:52:32.063Z,77.71
2023-06-03T07:53:33.659Z,49.81
2023-06-03T07:54:32.107Z,62.41
2023-06-03T07:55:32.038Z,74.53
2023-06-03T07:56:32.041Z,78.37
2023-06-03T07:57:32.051Z,76.87
2023-06-03T07:58:32.060Z,101.71
2023-06-03T07:59:32.028Z,116.78
2023-06-03T08:00:32.021Z,127.27
2023-06-03T08:01:32.015Z,115.38
2023-06-03T08:02:32.107Z,108.40
2023-06-03T08:03:32.045Z,109.28
2023-06-03T08:04:32.047Z,97.30
2023-06-03T08:05:31.991Z,86.38
2023-06-03T08:06:32.011Z,79.41
2023-06-03T08:07:31.974Z,84.79
2023-06-03T08:08:31.976Z,87.93
2023-06-03T08:09:31.964Z,113.99
2023-06-03T08:10:31.964Z,148.58
2023-06-03T08:11:32.344Z,162.55
2023-06-03T08:12:31.955Z,191.85
2023-06-03T08:13:31.955Z,203.01
2023-06-03T08:14:31.941Z,214.40
2023-06-03T08:15:31.941Z,223.92
2023-06-03T08:16:32.081Z,229.59
2023-06-03T08:17:31.950Z,225.62
2023-06-03T08:18:31.905Z,229.60
2023-06-03T08:19:31.894Z,221.42
2023-06-03T08:20:31.887Z,202.71
2023-06-03T08:21:31.880Z,168.46
2023-06-03T08:22:31.864Z,138.09
2023-06-03T08:23:31.928Z,129.61
2023-06-03T08:24:31.888Z,121.05
2023-06-03T08:25:31.852Z,142.55
2023-06-03T08:26:31.837Z,163.72
2023-06-03T08:27:31.829Z,189.89
2023-06-03T08:28:31.829Z,210.72
2023-06-03T08:29:31.839Z,229.08
2023-06-03T08:30:31.813Z,222.02
2023-06-03T08:31:31.817Z,230.17
2023-06-03T08:32:31.837Z,247.47
2023-06-03T08:33:31.814Z,231.20
2023-06-03T08:34:31.774Z,221.83
2023-06-03T08:35:31.787Z,209.63
2023-06-03T08:36:31.759Z,218.15
2023-06-03T08:37:31.788Z,221.83
2023-06-03T08:38:31.766Z,229.78
2023-06-03T08:39:31.783Z,242.99
2023-06-03T08:40:31.830Z,234.98
2023-06-03T08:41:31.882Z,229.88
2023-06-03T08:42:31.964Z,217.41
2023-06-03T08:43:32.087Z,202.44
2023-06-03T08:44:32.051Z,208.31
2023-06-03T08:45:32.123Z,203.82
2023-06-03T08:46:32.328Z,202.53
2023-06-03T08:47:32.264Z,206.88
2023-06-03T08:48:32.344Z,214.09
2023-06-03T08:49:32.361Z,211.70
2023-06-03T08:50:32.413Z,184.70
2023-06-03T08:51:32.474Z,180.54
2023-06-03T08:52:32.565Z,178.25
2023-06-03T08:53:32.619Z,186.47
2023-06-03T08:54:32.642Z,193.54
2023-06-03T08:55:32.696Z,205.13
2023-06-03T08:56:32.745Z,219.21
2023-06-03T08:57:32.824Z,232.38
2023-06-03T08:58:32.866Z,225.92
2023-06-03T08:59:32.894Z,235.18
2023-06-03T09:00:32.996Z,235.12
2023-06-03T09:01:33.068Z,233.83
2023-06-03T09:02:33.054Z,233.03
2023-06-03T09:03:33.124Z,225.93
2023-06-03T09:04:33.110Z,209.27
2023-06-03T09:05:33.138Z,178.55
2023-06-03T09:06:33.190Z,154.66
2023-06-03T09:07:33.208Z,134.68
2023-06-03T09:08:33.254Z,161.74
2023-06-03T09:09:33.285Z,139.00
2023-06-03T09:10:33.333Z,144.96
2023-06-03T09:11:33.360Z,125.77
2023-06-03T09:12:33.415Z,108.87
2023-06-03T09:13:33.434Z,97.05
2023-06-03T09:14:33.867Z,89.71
2023-06-03T09:15:33.614Z,118.42
2023-06-03T09:16:33.598Z,136.45
2023-06-03T09:17:33.611Z,99.69
2023-06-03T09:18:33.640Z,81.63
2023-06-03T09:19:33.682Z,79.21
2023-06-03T09:20:33.732Z,68.48
2023-06-03T09:21:33.761Z,64.23
2023-06-03T09:22:33.813Z,46.19
2023-06-03T09:23:33.879Z,41.90
2023-06-03T09:24:33.921Z,42.98
2023-06-03T09:25:33.933Z,40.50
2023-06-03T09:26:33.982Z,46.77
2023-06-03T09:27:34.061Z,37.06
2023-06-03T09:28:34.081Z,38.46
2023-06-03T09:29:34.142Z,63.34
2023-06-03T09:30:34.175Z,65.14
2023-06-03T09:31:34.257Z,71.10
2023-06-03T09:32:34.360Z,71.58
2023-06-03T09:33:34.324Z,63.61
2023-06-03T09:34:34.368Z,40.55
2023-06-03T09:35:34.378Z,42.06
2023-06-03T09:36:34.411Z,38.92
2023-06-03T09:37:34.460Z,36.31
2023-06-03T09:38:34.500Z,46.43
2023-06-03T09:39:34.583Z,60.52
2023-06-03T09:40:34.560Z,56.10
2023-06-03T09:41:34.598Z,39.86
2023-06-03T09:42:34.631Z,19.77
2023-06-03T09:43:34.673Z,28.81
2023-06-03T09:44:34.712Z,26.18
2023-06-03T09:45:34.744Z,29.62
2023-06-03T09:46:34.849Z,25.87
2023-06-03T09:47:34.851Z,32.19
2023-06-03T09:48:34.860Z,42.52
2023-06-03T09:49:49.807Z,53.90
2023-06-03T09:50:34.916Z,52.44
2023-06-03T09:51:34.877Z,31.26
2023-06-03T09:52:34.925Z,23.06
2023-06-03T09:53:34.848Z,10.84
2023-06-03T09:54:34.827Z,1.73
2023-06-03T09:55:34.839Z,24.96
2023-06-03T09:56:34.788Z,32.41
2023-06-03T09:57:34.775Z,24.77
2023-06-03T09:58:34.769Z,27.40
2023-06-03T09:59:34.752Z,21.88
2023-06-03T10:00:34.738Z,25.00
2023-06-03T10:01:34.764Z,26.97
2023-06-03T10:02:34.781Z,29.07
2023-06-03T10:03:34.760Z,26.86
2023-06-03T10:04:34.679Z,32.94
2023-06-03T10:05:34.667Z,36.60
2023-06-03T10:06:34.646Z,25.00
2023-06-03T10:07:34.696Z,29.98
2023-06-03T10:08:34.627Z,36.78
2023-06-03T10:09:34.619Z,36.18
2023-06-03T10:10:34.758Z,29.61
2023-06-03T10:11:34.610Z,34.62
2023-06-03T10:12:34.581Z,36.45
2023-06-03T10:13:34.574Z,44.51
2023-06-03T10:14:34.553Z,55.63
2023-06-03T10:15:34.536Z,67.46
2023-06-03T10:16:34.576Z,73.02
2023-06-03T10:17:37.103Z,83.02
2023-06-03T10:18:34.548Z,101.34
2023-06-03T10:19:34.526Z,104.49
2023-06-03T10:20:34.522Z,113.67
2023-06-03T10:21:34.492Z,120.58
2023-06-03T10:22:34.474Z,126.42
2023-06-03T10:23:34.489Z,126.33
2023-06-03T10:24:34.454Z,137.13
2023-06-03T10:25:34.456Z,141.70
2023-06-03T10:26:34.429Z,149.86
2023-06-03T10:27:34.417Z,157.63
2023-06-03T10:28:34.404Z,155.35
2023-06-03T10:29:34.403Z,164.66
2023-06-03T10:30:34.385Z,161.14
2023-06-03T10:31:34.425Z,159.26
2023-06-03T10:32:34.355Z,172.07
2023-06-03T10:33:34.343Z,180.65
2023-06-03T10:34:34.329Z,180.88
2023-06-03T10:35:34.325Z,181.71
2023-06-03T10:36:34.314Z,183.78
2023-06-03T10:37:34.296Z,192.96
2023-06-03T10:38:34.296Z,194.90
2023-06-03T10:39:34.280Z,202.71
2023-06-03T10:40:34.291Z,207.12
2023-06-03T10:41:34.254Z,212.31
2023-06-03T10:42:34.249Z,212.18
2023-06-03T10:43:34.259Z,212.13
2023-06-03T10:44:34.316Z,212.70
2023-06-03T10:45:34.368Z,219.97
2023-06-03T10:46:34.473Z,228.11
2023-06-03T10:47:34.504Z,229.93
2023-06-03T10:48:34.549Z,235.86
2023-06-03T10:49:34.582Z,238.91
2023-06-03T10:50:34.626Z,240.38
2023-06-03T10:51:34.680Z,244.58
2023-06-03T10:52:34.720Z,247.61
2023-06-03T10:53:34.793Z,248.41
2023-06-03T10:54:34.810Z,248.58
2023-06-03T10:55:34.879Z,246.34
2023-06-03T10:56:34.990Z,249.33
2023-06-03T10:57:34.940Z,249.07
2023-06-03T10:58:34.996Z,249.87
2023-06-03T10:59:35.022Z,249.79
2023-06-03T11:00:35.067Z,250.42
2023-06-03T11:01:35.135Z,248.86
2023-06-03T11:02:35.183Z,248.78
2023-06-03T11:03:35.205Z,250.00
2023-06-03T11:04:35.224Z,249.31
2023-06-03T11:05:35.257Z,247.42
2023-06-03T11:06:35.300Z,248.48
2023-06-03T11:07:35.324Z,248.54
2023-06-03T11:08:35.415Z,249.57
2023-06-03T11:09:35.416Z,248.79
2023-06-03T11:10:35.450Z,249.45
2023-06-03T11:11:35.479Z,248.72
2023-06-03T11:12:35.523Z,249.53
2023-06-03T11:13:35.562Z,249.90
2023-06-03T11:14:35.616Z,248.54
2023-06-03T11:15:35.634Z,249.68
2023-06-03T11:16:35.855Z,247.77
2023-06-03T11:17:35.724Z,247.89
2023-06-03T11:18:35.764Z,249.88
2023-06-03T11:19:35.812Z,249.76
2023-06-03T11:20:35.839Z,250.00
2023-06-03T11:21:35.882Z,249.51
2023-06-03T11:22:35.955Z,249.83
2023-06-03T11:23:36.009Z,249.05
2023-06-03T11:24:36.003Z,250.00
2023-06-03T11:25:36.050Z,249.90
2023-06-03T11:26:36.095Z,249.79
2023-06-03T11:27:36.139Z,248.28
2023-06-03T11:28:36.827Z,247.82
2023-06-03T11:29:36.248Z,249.42
2023-06-03T11:30:36.259Z,249.60
2023-06-03T11:31:36.379Z,249.75
2023-06-03T11:32:36.384Z,249.53
2023-06-03T11:33:36.379Z,249.50
2023-06-03T11:34:36.413Z,247.72
2023-06-03T11:35:36.451Z,247.61
2023-06-03T11:36:36.504Z,248.78
2023-06-03T11:37:36.547Z,250.00
2023-06-03T11:38:36.591Z,248.25
2023-06-03T11:39:36.634Z,248.68
2023-06-03T11:40:36.676Z,249.62
2023-06-03T11:41:36.741Z,250.00
2023-06-03T11:42:36.743Z,249.70
2023-06-03T11:43:36.792Z,248.65
2023-06-03T11:44:36.821Z,247.98
2023-06-03T11:45:36.854Z,248.21
2023-06-03T11:46:36.915Z,250.00
2023-06-03T11:47:37.018Z,249.86
2023-06-03T11:48:37.070Z,250.00
2023-06-03T11:49:37.049Z,248.75
2023-06-03T11:50:37.091Z,249.02
2023-06-03T11:51:37.132Z,247.87
2023-06-03T11:52:37.177Z,248.09
2023-06-03T11:53:37.229Z,248.89
2023-06-03T11:54:37.294Z,247.67
2023-06-03T11:55:37.313Z,248.80
2023-06-03T11:56:37.381Z,250.00
2023-06-03T11:57:37.396Z,247.31
2023-06-03T11:58:37.445Z,247.68
2023-06-03T11:59:37.493Z,248.05
2023-06-03T12:00:37.540Z,248.77
2023-06-03T12:01:37.585Z,247.44
2023-06-03T12:02:39.216Z,250.00
2023-06-03T12:03:37.737Z,247.49
2023-06-03T12:04:37.752Z,245.47
2023-06-03T12:05:37.590Z,243.95
2023-06-03T12:06:37.648Z,244.40
2023-06-03T12:07:37.572Z,245.26
2023-06-03T12:08:38.271Z,244.24
2023-06-03T12:09:37.554Z,246.74
2023-06-03T12:10:37.546Z,245.04
2023-06-03T12:11:37.534Z,247.39
2023-06-03T12:12:37.525Z,247.33
2023-06-03T12:13:37.522Z,247.60
2023-06-03T12:14:37.512Z,246.98
2023-06-03T12:15:37.517Z,246.81
2023-06-03T12:16:37.479Z,247.11
2023-06-03T12:17:37.490Z,247.20
2023-06-03T12:18:37.481Z,247.73
2023-06-03T12:19:37.452Z,248.05
2023-06-03T12:20:37.433Z,248.68
2023-06-03T12:21:37.450Z,247.92
2023-06-03T12:22:37.477Z,249.05
2023-06-03T12:23:37.612Z,249.08
2023-06-03T12:24:37.586Z,249.27
2023-06-03T12:25:37.622Z,248.37
2023-06-03T12:26:37.686Z,249.27
2023-06-03T12:27:37.704Z,248.56
2023-06-03T12:28:37.746Z,247.94
2023-06-03T12:29:37.799Z,248.52
2023-06-03T12:30:39.019Z,248.22
2023-06-03T12:31:38.041Z,248.47
2023-06-03T12:32:38.144Z,248.93
2023-06-03T12:33:37.994Z,247.52
2023-06-03T12:34:38.040Z,249.55
2023-06-03T12:35:38.084Z,248.62
2023-06-03T12:36:38.337Z,247.01
2023-06-03T12:37:38.179Z,248.51
2023-06-03T12:38:38.217Z,249.31
2023-06-03T12:39:38.267Z,248.20
2023-06-03T12:40:38.315Z,248.85
2023-06-03T12:41:38.362Z,249.25
2023-06-03T12:42:38.403Z,249.24
2023-06-03T12:43:38.440Z,248.39
2023-06-03T12:44:38.519Z,249.30
2023-06-03T12:45:38.537Z,247.40